Time;durP1;ratioP1;P1;durP2;ratioP2;P2;SDS_P1;SDS_P2;PMS_P1;PMS_P2;Temp;Humidity;BMP_temperature;BMP_pressure;BME280_temperature;BME280_humidity;BME280_pressure;Samples;Min_cycle;Max_cycle;Signal;HPM_P1;HPM_P2
2024/01/12 00:01:09;;;;;;;31.40;17.00;;;;;;;0.39;69.31;99738.17;231804;205;153925;-58
2024/01/12 00:06:25;;;;;;;29.70;15.80;;;;;;;0.48;69.38;99724.81;231634;199;137399;-57
2024/01/12 00:11:28;;;;;;;28.50;15.40;;;;;;;0.57;69.31;99726.98;231836;199;138202;-58
2024/01/12 00:16:31;;;;;;;27.70;13.10;;;;;;;0.59;69.37;99736.94;231842;205;152969;-58
2024/01/12 00:21:35;;;;;;;21.40;11.40;;;;;;;0.67;69.31;99742.59;231770;203;137820;-62
2024/01/12 00:26:38;;;;;;;18.00;10.10;;;;;;;0.78;68.76;99745.99;231766;206;138408;-58
2024/01/12 00:31:42;;;;;;;16.60;9.80;;;;;;;0.81;68.38;99751.54;231496;198;153429;-56
2024/01/12 00:36:47;;;;;;;16.90;9.00;;;;;;;0.84;68.02;99754.65;231630;198;138490;-58
2024/01/12 00:41:52;;;;;;;17.70;9.60;;;;;;;0.83;67.93;99753.27;231745;198;138553;-59
2024/01/12 00:46:55;;;;;;;14.20;9.10;;;;;;;0.84;67.73;99761.45;231711;198;153443;-57
2024/01/12 00:51:58;;;;;;;15.60;9.60;;;;;;;0.85;67.52;99766.52;231844;205;137400;-58
2024/01/12 00:57:01;;;;;;;15.80;10.00;;;;;;;0.89;67.49;99774.52;231995;197;142881;-57
2024/01/12 01:02:05;;;;;;;18.00;9.90;;;;;;;0.91;67.51;99780.59;232054;205;153437;-58
2024/01/12 01:07:08;;;;;;;16.90;10.40;;;;;;;0.92;67.35;99780.59;231887;205;138395;-56
2024/01/12 01:12:12;;;;;;;18.90;10.80;;;;;;;0.89;67.17;99775.73;230953;198;138704;-58
2024/01/12 01:17:15;;;;;;;18.80;11.00;;;;;;;0.87;67.25;99774.35;231866;198;153719;-58
2024/01/12 01:22:18;;;;;;;24.50;12.80;;;;;;;0.83;67.30;99766.19;231663;203;140038;-57
2024/01/12 01:27:21;;;;;;;23.10;13.90;;;;;;;0.79;67.60;99765.70;231840;205;139175;-57
2024/01/12 01:32:24;;;;;;;23.30;12.50;;;;;;;0.79;67.63;99773.40;232053;198;153793;-57
2024/01/12 01:37:28;;;;;;;19.80;12.90;;;;;;;0.82;67.71;99767.09;231767;197;137127;-57
2024/01/12 01:42:31;;;;;;;22.10;13.20;;;;;;;0.81;67.79;99764.98;231875;198;138858;-56
2024/01/12 01:47:34;;;;;;;23.30;12.80;;;;;;;0.82;67.69;99754.13;231880;198;153364;-55
2024/01/12 01:52:38;;;;;;;23.80;13.00;;;;;;;0.82;67.70;99761.30;231691;199;138515;-57
2024/01/12 01:57:42;;;;;;;23.60;14.10;;;;;;;0.76;68.00;99765.21;231849;205;137500;-52
2024/01/12 02:02:45;;;;;;;24.30;14.60;;;;;;;0.73;68.04;99761.23;231849;198;153315;-56
2024/01/12 02:07:49;;;;;;;26.20;14.80;;;;;;;0.69;68.29;99767.56;231983;198;139545;-57
2024/01/12 02:12:52;;;;;;;29.90;16.00;;;;;;;0.63;68.41;99767.96;231616;198;137706;-56
2024/01/12 02:17:55;;;;;;;31.30;16.60;;;;;;;0.67;68.51;99772.81;231828;202;153390;-56
2024/01/12 02:22:59;;;;;;;27.90;16.00;;;;;;;0.75;68.38;99773.44;231752;202;138605;-57
2024/01/12 02:28:02;;;;;;;33.60;16.10;;;;;;;0.86;68.08;99769.48;231897;198;137782;-55
2024/01/12 02:33:07;;;;;;;29.20;16.10;;;;;;;0.88;68.09;99769.09;231825;198;153062;-55
2024/01/12 02:38:10;;;;;;;31.50;16.90;;;;;;;0.88;67.98;99765.26;231922;198;138218;-55
2024/01/12 02:43:14;;;;;;;28.60;15.70;;;;;;;0.86;67.89;99764.23;231809;198;137749;-56
2024/01/12 02:48:17;;;;;;;28.20;16.00;;;;;;;0.86;67.83;99766.15;231822;197;153753;-57
2024/01/12 02:53:20;;;;;;;26.30;15.30;;;;;;;0.81;67.83;99768.83;231580;197;140474;-57
2024/01/12 02:58:24;;;;;;;30.10;15.90;;;;;;;0.78;67.94;99770.25;231822;205;137975;-56
2024/01/12 03:03:27;;;;;;;27.60;15.90;;;;;;;0.69;68.06;99772.10;231891;199;154360;-57
2024/01/12 03:08:30;;;;;;;27.00;15.20;;;;;;;0.61;68.20;99774.09;231966;198;138268;-57
2024/01/12 03:13:35;;;;;;;28.20;15.70;;;;;;;0.60;68.30;99774.97;231987;202;140017;-57
2024/01/12 03:18:38;;;;;;;26.00;15.00;;;;;;;0.61;68.39;99765.73;231727;198;153989;-58
2024/01/12 03:23:42;;;;;;;28.20;15.50;;;;;;;0.60;68.46;99772.52;231804;202;137805;-55
2024/01/12 03:28:45;;;;;;;24.80;15.20;;;;;;;0.60;68.54;99782.83;231777;198;137445;-55
2024/01/12 03:33:48;;;;;;;26.30;14.80;;;;;;;0.57;68.57;99792.29;231849;205;154149;-56
2024/01/12 03:38:54;;;;;;;24.70;14.40;;;;;;;0.61;68.64;99787.02;231609;202;137732;-56
2024/01/12 03:43:58;;;;;;;26.80;15.50;;;;;;;0.62;68.67;99792.77;231951;198;137631;-57
2024/01/12 03:49:02;;;;;;;27.00;14.60;;;;;;;0.67;68.57;99790.45;231819;198;154260;-57
2024/01/12 03:54:05;;;;;;;29.40;15.60;;;;;;;0.68;68.63;99800.58;231506;198;141465;-55
2024/01/12 03:59:11;;;;;;;26.60;15.30;;;;;;;0.71;68.56;99803.86;231793;201;137721;-59
2024/01/12 04:04:14;;;;;;;23.80;14.90;;;;;;;0.70;68.68;99807.88;231802;202;154085;-57
2024/01/12 04:09:17;;;;;;;28.10;14.80;;;;;;;0.71;68.72;99814.33;231589;199;138570;-58
2024/01/12 04:14:20;;;;;;;24.60;13.70;;;;;;;0.79;68.58;99817.41;231874;198;138623;-61
2024/01/12 04:19:23;;;;;;;24.50;14.50;;;;;;;0.86;68.12;99821.88;231904;198;153906;-58
2024/01/12 04:24:27;;;;;;;19.80;11.80;;;;;;;0.89;67.86;99830.40;231863;198;138331;-58
2024/01/12 04:29:30;;;;;;;21.40;11.00;;;;;;;0.94;67.31;99839.25;231947;198;137647;-56
2024/01/12 04:34:36;;;;;;;20.10;10.10;;;;;;;1.03;66.33;99840.91;231810;198;152985;-56
2024/01/12 04:39:41;;;;;;;21.00;8.90;;;;;;;1.00;65.38;99833.25;231756;199;138201;-58
2024/01/12 04:44:44;;;;;;;18.20;9.00;;;;;;;0.96;64.95;99835.57;231996;201;137588;-58
2024/01/12 04:49:47;;;;;;;15.00;7.60;;;;;;;0.88;64.45;99832.34;231458;198;153807;-61
2024/01/12 04:54:50;;;;;;;14.00;6.60;;;;;;;0.89;64.31;99828.82;231950;197;137440;-63
2024/01/12 04:59:54;;;;;;;13.10;6.50;;;;;;;0.88;63.87;99822.39;231890;201;137982;-58
2024/01/12 05:04:57;;;;;;;11.90;5.60;;;;;;;0.84;63.34;99825.21;231843;198;153231;-59
2024/01/12 05:10:00;;;;;;;9.40;5.70;;;;;;;0.70;63.08;99834.42;231778;202;137698;-59
2024/01/12 05:15:04;;;;;;;9.80;5.30;;;;;;;0.59;62.83;99837.66;231852;205;137303;-58
2024/01/12 05:20:08;;;;;;;11.80;6.10;;;;;;;0.41;62.90;99844.27;231888;197;153745;-58
2024/01/12 05:25:11;;;;;;;10.90;5.90;;;;;;;0.37;62.80;99846.59;231719;203;140468;-59
2024/01/12 05:30:14;;;;;;;10.10;5.30;;;;;;;0.29;62.63;99855.54;231706;201;137761;-58
2024/01/12 05:35:19;;;;;;;9.00;5.60;;;;;;;0.24;62.48;99859.92;231713;205;153251;-58
2024/01/12 05:40:22;;;;;;;10.20;5.30;;;;;;;0.17;62.34;99866.96;231843;198;138952;-58
2024/01/12 05:45:25;;;;;;;12.70;6.00;;;;;;;0.11;62.15;99868.58;231953;197;137570;-56
2024/01/12 05:50:29;;;;;;;12.10;6.00;;;;;;;0.04;61.95;99863.56;231840;198;153180;-55
2024/01/12 05:55:32;;;;;;;12.70;6.10;;;;;;;-0.11;62.29;99861.38;232067;197;138452;-59
2024/01/12 06:00:37;;;;;;;12.30;5.80;;;;;;;-0.22;62.39;99868.58;232020;198;137827;-59
2024/01/12 06:05:41;;;;;;;11.50;6.20;;;;;;;-0.29;62.45;99869.84;231882;198;153797;-60
2024/01/12 06:10:45;;;;;;;12.30;6.50;;;;;;;-0.32;62.42;99870.91;231850;198;140814;-59
2024/01/12 06:15:48;;;;;;;11.80;6.60;;;;;;;-0.38;62.31;99874.59;231744;198;137892;-59
2024/01/12 06:20:51;;;;;;;14.40;7.90;;;;;;;-0.45;62.42;99873.05;231866;204;153225;-58
2024/01/12 06:25:55;;;;;;;14.50;7.20;;;;;;;-0.48;62.48;99878.64;232006;201;138907;-59
2024/01/12 06:30:58;;;;;;;16.80;8.50;;;;;;;-0.53;62.46;99887.19;231953;205;137230;-57
2024/01/12 06:36:02;;;;;;;16.80;8.00;;;;;;;-0.55;62.32;99896.09;232072;201;153722;-59
2024/01/12 06:41:06;;;;;;;14.60;7.20;;;;;;;-0.61;62.38;99907.44;231901;198;138635;-59
2024/01/12 06:46:10;;;;;;;14.80;7.80;;;;;;;-0.66;62.40;99916.86;231980;205;138314;-60
2024/01/12 06:51:21;;;;;;;14.00;8.00;;;;;;;-0.70;62.28;99919.66;231845;203;153488;-60
2024/01/12 06:56:24;;;;;;;22.30;12.60;;;;;;;-0.60;63.24;99924.33;231828;205;137339;-59
2024/01/12 07:01:27;;;;;;;21.30;10.60;;;;;;;-0.57;62.13;99927.81;231712;205;138196;-57
2024/01/12 07:06:30;;;;;;;295.90;200.70;;;;;;;-0.64;62.00;99926.79;231760;199;155323;-55
2024/01/12 07:11:34;;;;;;;32.80;17.00;;;;;;;-0.67;62.07;99931.50;231735;198;139073;-56
2024/01/12 07:16:37;;;;;;;17.10;9.50;;;;;;;-0.71;62.04;99943.20;231750;197;138244;-56
2024/01/12 07:21:41;;;;;;;10.50;6.30;;;;;;;-0.62;62.38;99944.91;231824;199;153113;-55
2024/01/12 07:26:44;;;;;;;13.90;6.20;;;;;;;-0.60;61.96;99947.34;231951;198;138075;-56
2024/01/12 07:31:49;;;;;;;10.50;5.90;;;;;;;-0.60;62.13;99944.04;232003;198;138482;-54
2024/01/12 07:36:52;;;;;;;12.90;6.70;;;;;;;-0.54;62.34;99945.59;231772;198;154107;-56
2024/01/12 07:41:56;;;;;;;13.90;5.70;;;;;;;-0.49;62.27;99944.52;231814;202;138122;-55
2024/01/12 07:46:59;;;;;;;9.90;5.40;;;;;;;-0.42;62.20;99946.95;231706;205;138069;-61
2024/01/12 07:52:02;;;;;;;102.30;68.70;;;;;;;-0.32;62.91;99943.08;231767;197;155568;-55
2024/01/12 07:57:06;;;;;;;24.80;13.80;;;;;;;-0.13;62.72;99938.11;231708;198;142699;-56
2024/01/12 08:02:09;;;;;;;13.10;7.20;;;;;;;0.06;62.34;99931.76;231865;198;137420;-56
2024/01/12 08:07:13;;;;;;;14.20;6.20;;;;;;;0.18;62.05;99927.67;231907;204;153293;-57
2024/01/12 08:12:16;;;;;;;10.60;5.70;;;;;;;0.26;61.54;99924.48;231861;198;137289;-56
2024/01/12 08:17:19;;;;;;;10.70;5.70;;;;;;;0.30;61.54;99926.38;231799;202;137566;-57
2024/01/12 08:22:23;;;;;;;12.00;5.70;;;;;;;0.37;61.37;99932.97;231721;198;153918;-56
2024/01/12 08:27:26;;;;;;;14.20;7.30;;;;;;;0.40;61.44;99930.16;231816;205;139010;-57
2024/01/12 08:32:30;;;;;;;12.90;7.00;;;;;;;0.45;61.42;99925.60;231837;202;137483;-56
2024/01/12 08:37:33;;;;;;;66.50;41.30;;;;;;;0.49;62.03;99930.80;231886;198;153352;-57
2024/01/12 08:42:38;;;;;;;28.50;16.00;;;;;;;0.61;62.22;99929.48;231810;205;138249;-57
2024/01/12 08:47:42;;;;;;;17.00;8.20;;;;;;;0.70;60.86;99932.58;231637;198;138556;-57
2024/01/12 08:52:46;;;;;;;13.10;7.60;;;;;;;0.61;60.60;99942.41;231643;203;154165;-57
2024/01/12 08:57:52;;;;;;;13.20;6.80;;;;;;;0.60;60.53;99949.05;231842;205;138831;-57
2024/01/12 09:02:55;;;;;;;13.80;6.30;;;;;;;0.61;60.33;99954.98;231866;204;137209;-58
2024/01/12 09:07:59;;;;;;;13.10;6.50;;;;;;;0.61;60.26;99958.30;231893;203;153304;-58
2024/01/12 09:13:03;;;;;;;41.00;21.70;;;;;;;0.72;60.93;99960.84;231860;198;137533;-57
2024/01/12 09:18:06;;;;;;;116.50;68.40;;;;;;;0.92;60.62;99974.48;231602;205;137651;-59
2024/01/12 09:23:10;;;;;;;14.40;7.50;;;;;;;1.12;60.19;99983.77;231647;203;154256;-59
2024/01/12 09:28:13;;;;;;;15.10;6.60;;;;;;;1.16;59.11;99990.36;231723;199;137404;-58
2024/01/12 09:33:17;;;;;;;13.50;6.90;;;;;;;1.17;58.96;99999.98;231873;198;138414;-56
2024/01/12 09:38:20;;;;;;;11.90;6.20;;;;;;;1.24;59.08;100007.42;231893;205;153457;-58
2024/01/12 09:43:27;;;;;;;12.70;6.50;;;;;;;1.25;58.36;100011.44;231629;198;138964;-58
2024/01/12 09:48:32;;;;;;;10.30;5.50;;;;;;;1.38;58.78;100008.17;231731;197;137647;-59
2024/01/12 09:53:35;;;;;;;9.90;5.00;;;;;;;1.45;58.76;100010.73;231655;198;153657;-59
2024/01/12 09:58:40;;;;;;;8.30;4.30;;;;;;;1.45;58.26;100004.43;231628;202;139092;-57
2024/01/12 10:03:49;;;;;;;7.80;4.20;;;;;;;1.40;57.30;99988.23;231695;199;137315;-58
2024/01/12 10:08:52;;;;;;;9.40;4.40;;;;;;;1.41;56.77;99978.60;231561;198;153793;-57
2024/01/12 10:13:55;;;;;;;8.60;3.90;;;;;;;1.51;55.69;99975.36;231656;198;138536;-58
2024/01/12 10:18:59;;;;;;;7.40;4.00;;;;;;;1.58;54.95;99976.33;231563;199;138576;-60
2024/01/12 10:24:06;;;;;;;8.40;5.00;;;;;;;1.76;55.01;99975.98;231602;198;155629;-57
2024/01/12 10:29:11;;;;;;;9.70;5.00;;;;;;;1.98;54.33;99974.83;231801;203;138371;-57
2024/01/12 10:34:15;;;;;;;11.40;4.80;;;;;;;2.05;53.63;99964.60;231697;203;138145;-58
2024/01/12 10:39:22;;;;;;;8.60;4.60;;;;;;;2.11;53.63;99960.32;231765;197;152996;-58
2024/01/12 10:44:27;;;;;;;9.40;4.50;;;;;;;2.23;53.25;99957.88;231816;205;137371;-57
2024/01/12 10:49:40;;;;;;;9.20;4.40;;;;;;;2.25;52.13;99961.89;231903;205;142126;-57
2024/01/12 10:54:57;;;;;;;7.20;3.90;;;;;;;2.10;51.71;99950.54;231741;205;154973;-56
2024/01/12 11:00:00;;;;;;;9.20;4.20;;;;;;;2.04;51.34;99940.27;231772;198;137199;-58
2024/01/12 11:05:08;;;;;;;12.20;4.70;;;;;;;2.11;51.82;99946.14;231967;198;137392;-55
2024/01/12 11:10:12;;;;;;;8.60;4.60;;;;;;;2.22;51.90;99938.65;231825;198;153436;-56
2024/01/12 11:15:16;;;;;;;10.40;4.70;;;;;;;2.23;51.77;99922.88;231923;205;137686;-56
2024/01/12 11:20:20;;;;;;;11.00;5.70;;;;;;;2.26;51.74;99914.44;231907;198;138150;-56
2024/01/12 11:25:24;;;;;;;8.70;5.10;;;;;;;2.22;50.83;99912.38;231938;198;154669;-56
2024/01/12 11:30:29;;;;;;;11.40;5.70;;;;;;;2.23;50.81;99903.27;231649;206;137917;-56
2024/01/12 11:35:32;;;;;;;11.80;5.50;;;;;;;2.25;50.50;99889.95;231835;199;137721;-56
2024/01/12 11:40:36;;;;;;;9.70;5.50;;;;;;;2.34;51.00;99878.95;231860;205;153025;-57
2024/01/12 11:45:42;;;;;;;12.10;6.20;;;;;;;2.47;50.23;99870.68;231841;205;138675;-54
2024/01/12 11:50:45;;;;;;;10.80;5.20;;;;;;;2.44;49.86;99859.89;231809;205;137659;-56
2024/01/12 11:55:49;;;;;;;9.40;5.30;;;;;;;2.37;50.06;99857.54;231855;198;153730;-56
2024/01/12 12:00:52;;;;;;;11.30;5.00;;;;;;;2.19;49.81;99848.02;231816;198;138494;-54
2024/01/12 12:05:55;;;;;;;13.10;5.90;;;;;;;2.18;50.48;99832.27;231706;198;137365;-54
2024/01/12 12:10:59;;;;;;;10.50;5.70;;;;;;;2.26;50.68;99818.84;231741;203;153819;-57
2024/01/12 12:16:03;;;;;;;14.10;6.20;;;;;;;2.32;50.72;99806.65;231674;198;137298;-58
2024/01/12 12:21:06;;;;;;;13.30;6.40;;;;;;;2.41;50.79;99801.27;231828;199;137844;-58
2024/01/12 12:26:11;;;;;;;13.30;6.40;;;;;;;2.28;50.56;99804.80;231937;199;153347;-57
2024/01/12 12:31:15;;;;;;;13.50;6.60;;;;;;;2.24;51.04;99804.36;231744;198;137724;-58
2024/01/12 12:36:19;;;;;;;11.50;6.20;;;;;;;2.22;50.48;99803.33;231791;205;139626;-58
2024/01/12 12:41:23;;;;;;;11.50;5.30;;;;;;;2.17;49.60;99803.06;231759;202;153369;-56
2024/01/12 12:46:27;;;;;;;11.60;5.70;;;;;;;2.15;49.43;99795.56;231795;205;137744;-59
2024/01/12 12:51:30;;;;;;;13.20;7.10;;;;;;;2.14;49.42;99792.06;231809;205;137108;-57
2024/01/12 12:56:33;;;;;;;14.10;6.80;;;;;;;2.13;50.11;99791.21;231824;198;153698;-59
2024/01/12 13:01:37;;;;;;;19.20;8.80;;;;;;;2.20;50.54;99794.60;231900;202;138787;-58
2024/01/12 13:06:42;;;;;;;18.60;10.30;;;;;;;2.12;51.34;99788.60;231938;198;137956;-58
2024/01/12 13:11:45;;;;;;;20.40;10.80;;;;;;;2.10;51.90;99780.95;231738;205;153231;-57
2024/01/12 13:16:49;;;;;;;24.20;11.10;;;;;;;2.11;52.53;99769.54;231823;203;139164;-58
2024/01/12 13:21:53;;;;;;;23.70;10.90;;;;;;;2.25;52.83;99764.42;231964;198;138245;-59
2024/01/12 13:26:57;;;;;;;24.20;11.60;;;;;;;2.27;52.31;99762.10;231852;199;153596;-59
2024/01/12 13:32:02;;;;;;;25.20;11.90;;;;;;;2.20;52.00;99766.61;231995;205;140772;-56
2024/01/12 13:37:06;;;;;;;22.10;11.30;;;;;;;2.18;52.43;99772.21;231898;201;137368;-58
2024/01/12 13:42:10;;;;;;;22.90;11.60;;;;;;;2.26;52.40;99761.08;231745;198;153767;-59
2024/01/12 13:47:13;;;;;;;20.10;11.30;;;;;;;2.31;52.09;99753.63;231767;197;138124;-59
2024/01/12 13:52:16;;;;;;;22.00;11.70;;;;;;;2.28;51.61;99749.48;231735;205;138375;-59
2024/01/12 13:57:19;;;;;;;23.70;12.00;;;;;;;2.26;51.21;99746.55;231829;198;153167;-59
2024/01/12 14:02:23;;;;;;;21.80;12.60;;;;;;;2.20;51.15;99746.13;232037;197;137522;-58
2024/01/12 14:07:27;;;;;;;22.60;12.70;;;;;;;2.10;50.90;99752.57;231814;198;137723;-60
2024/01/12 14:12:30;;;;;;;19.80;11.90;;;;;;;2.03;51.00;99755.66;231805;205;154312;-55
2024/01/12 14:17:33;;;;;;;20.40;12.20;;;;;;;2.01;51.43;99757.80;231784;198;138928;-61
2024/01/12 14:22:37;;;;;;;20.20;11.20;;;;;;;1.91;51.91;99770.55;231745;198;137791;-57
2024/01/12 14:27:41;;;;;;;16.10;8.80;;;;;;;1.92;52.37;99777.71;231765;197;154836;-59
2024/01/12 14:32:44;;;;;;;14.00;7.40;;;;;;;1.96;52.93;99780.98;231673;199;138705;-57
2024/01/12 14:37:48;;;;;;;10.80;6.80;;;;;;;1.91;53.79;99776.67;231977;198;138188;-59
2024/01/12 14:42:51;;;;;;;13.80;7.70;;;;;;;1.85;54.62;99766.62;231737;198;153272;-55
2024/01/12 14:47:56;;;;;;;13.90;7.80;;;;;;;1.79;55.34;99739.08;231702;205;138244;-59
2024/01/12 14:53:00;;;;;;;16.80;8.70;;;;;;;1.78;55.82;99739.60;231985;202;137832;-60
2024/01/12 14:58:04;;;;;;;15.50;8.00;;;;;;;1.77;55.96;99741.02;232059;198;153677;-59
2024/01/12 15:03:07;;;;;;;16.80;8.90;;;;;;;1.69;56.05;99735.20;231929;203;138357;-55
2024/01/12 15:08:13;;;;;;;15.00;8.90;;;;;;;1.63;56.23;99739.83;232287;197;137723;-59
2024/01/12 15:13:17;;;;;;;13.90;8.50;;;;;;;1.54;56.27;99741.19;232146;204;153140;-58
2024/01/12 15:18:20;;;;;;;15.20;8.00;;;;;;;1.48;56.53;99753.85;232077;197;140435;-60
2024/01/12 15:23:25;;;;;;;14.20;8.00;;;;;;;1.41;56.88;99751.84;231945;202;137426;-59
2024/01/12 15:28:30;;;;;;;15.00;8.80;;;;;;;1.43;56.84;99751.31;232045;204;153044;-60
2024/01/12 15:33:33;;;;;;;20.60;9.10;;;;;;;1.44;56.86;99755.66;232137;198;139088;-56
2024/01/12 15:38:37;;;;;;;15.10;8.80;;;;;;;1.45;56.98;99745.86;232070;201;137668;-58
2024/01/12 15:43:40;;;;;;;15.80;8.60;;;;;;;1.39;56.95;99744.89;232079;198;153320;-60
2024/01/12 15:48:43;;;;;;;15.70;9.50;;;;;;;1.39;57.02;99744.02;231876;197;137392;-57
2024/01/12 15:53:47;;;;;;;22.60;10.40;;;;;;;1.34;57.27;99738.14;231860;198;139022;-59
2024/01/12 15:58:50;;;;;;;21.90;11.50;;;;;;;1.31;57.70;99722.11;231972;204;153111;-59
2024/01/12 16:03:54;;;;;;;20.80;11.50;;;;;;;1.32;57.60;99718.06;231875;202;138196;-59
2024/01/12 16:08:57;;;;;;;22.20;11.60;;;;;;;1.32;57.85;99710.02;232040;201;137823;-61
2024/01/12 16:14:01;;;;;;;22.10;12.80;;;;;;;1.29;58.22;99704.48;231830;204;290711;-58
2024/01/12 16:19:04;;;;;;;24.30;13.40;;;;;;;1.31;58.39;99703.04;232040;197;137489;-61
2024/01/12 16:24:17;;;;;;;23.70;13.90;;;;;;;1.32;58.74;99691.49;232036;197;140813;-61
2024/01/12 16:29:20;;;;;;;25.20;14.10;;;;;;;1.33;58.90;99693.58;232064;198;153320;-60
2024/01/12 16:34:24;;;;;;;26.90;14.40;;;;;;;1.25;59.34;99686.70;231958;197;138979;-61
2024/01/12 16:39:28;;;;;;;28.20;15.00;;;;;;;1.17;59.64;99691.33;231976;199;137761;-61
2024/01/12 16:44:31;;;;;;;28.60;15.10;;;;;;;1.16;59.98;99688.73;231911;204;154061;-60
2024/01/12 16:49:38;;;;;;;29.60;14.30;;;;;;;1.14;60.11;99689.80;231987;197;138164;-62
2024/01/12 16:54:41;;;;;;;26.90;15.20;;;;;;;1.07;60.36;99686.07;231964;197;137658;-59
2024/01/12 16:59:44;;;;;;;24.70;13.90;;;;;;;1.05;60.50;99670.71;230858;198;153269;-59
2024/01/12 17:04:51;;;;;;;25.50;13.20;;;;;;;1.07;60.46;99665.98;232047;198;137597;-57
2024/01/12 17:09:54;;;;;;;25.70;12.50;;;;;;;1.05;60.26;99660.58;232053;204;137851;-59
2024/01/12 17:14:57;;;;;;;21.60;12.00;;;;;;;0.98;60.33;99654.73;232040;201;153174;-61
2024/01/12 17:20:02;;;;;;;23.30;13.20;;;;;;;0.85;60.48;99644.77;231947;199;266919;-60
2024/01/12 17:25:05;;;;;;;24.60;12.70;;;;;;;0.89;60.59;99635.46;231917;199;138842;-62
2024/01/12 17:30:09;;;;;;;24.20;13.60;;;;;;;0.88;60.85;99622.73;232058;198;155400;-62
2024/01/12 17:35:13;;;;;;;23.20;12.50;;;;;;;0.84;60.81;99620.68;231900;205;137328;-62
2024/01/12 17:40:16;;;;;;;25.80;12.90;;;;;;;0.79;60.80;99611.50;231775;204;139200;-60
2024/01/12 17:45:20;;;;;;;28.60;15.40;;;;;;;0.77;60.90;99611.52;232171;204;153443;-62
2024/01/12 17:50:24;;;;;;;32.50;16.70;;;;;;;0.75;61.41;99593.05;231948;204;138989;-61
2024/01/12 17:55:28;;;;;;;36.70;19.70;;;;;;;0.68;62.19;99569.03;231946;202;138203;-60
2024/01/12 18:00:31;;;;;;;39.70;21.50;;;;;;;0.63;62.57;99574.16;232029;201;154173;-60
2024/01/12 18:05:34;;;;;;;43.30;22.90;;;;;;;0.60;63.18;99582.41;231783;199;141453;-62
2024/01/12 18:10:37;;;;;;;44.60;22.10;;;;;;;0.48;63.64;99594.27;231725;205;137339;-61
2024/01/12 18:15:43;;;;;;;38.90;20.20;;;;;;;0.39;63.70;99597.69;231925;204;153260;-60
2024/01/12 18:20:47;;;;;;;38.80;20.40;;;;;;;0.36;63.53;99589.33;231795;201;138682;-61
2024/01/12 18:25:53;;;;;;;41.80;20.60;;;;;;;0.34;63.60;99597.03;232133;204;138314;-62
2024/01/12 18:30:57;;;;;;;39.60;20.80;;;;;;;0.32;63.85;99599.68;231763;202;154554;-63
2024/01/12 18:36:00;;;;;;;40.00;20.70;;;;;;;0.31;64.16;99612.08;232015;204;138762;-62
2024/01/12 18:41:06;;;;;;;35.90;20.80;;;;;;;0.28;64.46;99618.06;231900;202;138997;-61
2024/01/12 18:46:09;;;;;;;37.60;19.50;;;;;;;0.30;64.76;99627.27;231796;198;153423;-60
2024/01/12 18:51:13;;;;;;;37.60;19.80;;;;;;;0.33;64.72;99622.19;231856;205;137428;-55
2024/01/12 18:56:16;;;;;;;36.70;19.90;;;;;;;0.38;64.76;99601.70;231911;197;138111;-57
2024/01/12 19:01:19;;;;;;;34.50;18.60;;;;;;;0.42;64.63;99579.50;231730;198;153541;-59
2024/01/12 19:06:22;;;;;;;42.30;21.50;;;;;;;0.37;64.45;99579.90;232272;198;137816;-59
2024/01/12 19:11:26;;;;;;;37.80;19.30;;;;;;;0.35;64.65;99574.16;231607;198;137110;-60
2024/01/12 19:16:29;;;;;;;204.40;127.10;;;;;;;0.36;64.43;99563.69;231751;198;153904;-64
2024/01/12 19:21:32;;;;;;;43.40;23.00;;;;;;;0.49;64.82;99554.79;232215;197;138801;-59
2024/01/12 19:26:35;;;;;;;30.90;17.00;;;;;;;0.56;64.00;99550.16;232115;199;137802;-59
2024/01/12 19:31:38;;;;;;;29.00;15.90;;;;;;;0.50;63.72;99544.14;231693;205;154114;-60
2024/01/12 19:36:43;;;;;;;29.00;16.40;;;;;;;0.51;63.60;99537.48;231781;204;138246;-59
2024/01/12 19:41:47;;;;;;;28.50;14.10;;;;;;;0.51;63.56;99539.40;231293;202;138708;-58
2024/01/12 19:46:50;;;;;;;26.90;15.20;;;;;;;0.49;63.48;99528.45;231920;204;153301;-60
2024/01/12 19:51:53;;;;;;;26.30;14.10;;;;;;;0.48;63.41;99523.38;231917;204;137480;-58
2024/01/12 19:56:57;;;;;;;30.10;14.30;;;;;;;0.47;63.28;99538.06;232012;204;138065;-59
2024/01/12 20:02:00;;;;;;;25.40;14.40;;;;;;;0.46;63.48;99535.80;232446;197;153003;-60
2024/01/12 20:07:04;;;;;;;27.20;14.40;;;;;;;0.39;63.55;99530.48;232073;201;138168;-58
2024/01/12 20:12:07;;;;;;;26.10;15.50;;;;;;;0.31;63.73;99522.73;231894;201;137404;-58
2024/01/12 20:17:10;;;;;;;52.20;31.60;;;;;;;0.37;64.14;99521.09;232066;204;154007;-59
2024/01/12 20:22:14;;;;;;;32.60;17.70;;;;;;;0.55;64.50;99516.65;232125;204;137996;-58
2024/01/12 20:27:17;;;;;;;28.60;15.50;;;;;;;0.58;63.55;99508.05;232011;197;138470;-57
2024/01/12 20:32:21;;;;;;;28.10;15.50;;;;;;;0.58;63.29;99497.07;231999;204;152948;-60
2024/01/12 20:37:25;;;;;;;28.10;15.60;;;;;;;0.58;63.14;99482.58;232009;196;137282;-59
2024/01/12 20:42:29;;;;;;;28.20;13.70;;;;;;;0.50;63.22;99473.80;232048;204;137273;-59
2024/01/12 20:47:32;;;;;;;23.30;12.40;;;;;;;0.39;63.47;99466.26;232093;201;153589;-61
2024/01/12 20:52:36;;;;;;;25.90;13.50;;;;;;;0.28;63.92;99453.48;232052;197;142935;-61
2024/01/12 20:57:41;;;;;;;32.90;14.90;;;;;;;0.21;64.16;99452.73;232240;204;137804;-58
2024/01/12 21:02:44;;;;;;;24.90;13.80;;;;;;;0.16;64.63;99451.39;232109;197;153485;-60
2024/01/12 21:07:47;;;;;;;31.40;18.30;;;;;;;0.16;64.85;99453.48;232163;204;137206;-61
2024/01/12 21:12:51;;;;;;;46.70;24.70;;;;;;;0.28;65.79;99450.19;232129;201;137525;-60
2024/01/12 21:17:54;;;;;;;25.50;14.30;;;;;;;0.45;65.11;99447.14;231936;198;153687;-61
2024/01/12 21:22:58;;;;;;;26.80;13.70;;;;;;;0.38;65.00;99442.71;231681;198;137939;-60
2024/01/12 21:28:07;;;;;;;27.00;14.30;;;;;;;0.36;65.01;99447.80;231845;201;137471;-61
2024/01/12 21:33:11;;;;;;;28.40;14.50;;;;;;;0.29;65.10;99443.89;231885;202;154372;-62
2024/01/12 21:38:14;;;;;;;25.80;13.20;;;;;;;0.23;65.45;99437.34;231866;198;141029;-61
2024/01/12 21:43:17;;;;;;;25.40;13.20;;;;;;;0.21;65.42;99437.38;231779;198;138341;-61
2024/01/12 21:48:21;;;;;;;21.10;12.30;;;;;;;0.27;65.53;99429.27;231685;199;153180;-62
2024/01/12 21:53:24;;;;;;;23.70;13.30;;;;;;;0.24;65.42;99428.27;231591;202;138345;-60
2024/01/12 21:58:28;;;;;;;24.50;12.70;;;;;;;0.22;65.48;99427.23;231788;201;137822;-61
2024/01/12 22:03:32;;;;;;;25.00;13.00;;;;;;;0.19;65.65;99426.92;231743;198;153279;-62
2024/01/12 22:08:35;;;;;;;85.90;47.20;;;;;;;0.39;68.38;99426.13;231518;202;138774;-64
2024/01/12 22:13:39;;;;;;;25.90;12.70;;;;;;;0.69;65.54;99424.61;231863;203;138798;-61
2024/01/12 22:18:42;;;;;;;21.20;11.90;;;;;;;0.60;64.41;99427.04;231951;198;153708;-61
2024/01/12 22:23:46;;;;;;;21.60;11.90;;;;;;;0.51;64.56;99422.98;231695;204;138549;-58
2024/01/12 22:28:49;;;;;;;22.60;12.40;;;;;;;0.38;64.76;99414.27;231870;197;138761;-59
2024/01/12 22:33:52;;;;;;;22.30;11.40;;;;;;;0.28;65.01;99409.17;231916;198;153009;-60
2024/01/12 22:38:56;;;;;;;21.70;12.40;;;;;;;0.23;65.03;99400.70;231865;198;137956;-64
2024/01/12 22:44:00;;;;;;;25.50;13.50;;;;;;;0.20;65.41;99397.43;232027;198;137125;-62
2024/01/12 22:49:04;;;;;;;23.70;12.80;;;;;;;0.20;65.41;99392.02;231864;198;153751;-61
2024/01/12 22:54:09;;;;;;;26.30;14.50;;;;;;;0.14;65.47;99390.54;231758;198;141387;-63
2024/01/12 22:59:12;;;;;;;24.60;13.60;;;;;;;0.11;65.68;99384.48;231891;197;137862;-61
2024/01/12 23:04:15;;;;;;;26.90;13.50;;;;;;;0.15;65.51;99376.39;231796;198;153389;-60
2024/01/12 23:09:19;;;;;;;27.20;15.20;;;;;;;0.27;66.87;99377.78;231977;198;141395;-58
2024/01/12 23:14:22;;;;;;;31.00;14.50;;;;;;;0.29;65.48;99373.58;231912;202;138149;-60
2024/01/12 23:19:26;;;;;;;28.90;13.50;;;;;;;0.17;65.64;99376.55;231898;197;153337;-64